sensor_id;sensor_type;location;lat;lon;timestamp;P1;durP1;ratioP1;P2;durP2;ratioP2
4078;SDS011;2054;47.858;11.156;2022-12-07T03:45:33;14.95;;;7.90;;
4078;SDS011;2054;47.858;11.156;2022-12-07T03:48:05;13.65;;;7.35;;
4078;SDS011;2054;47.858;11.156;2022-12-07T03:50:36;12.38;;;7.97;;
4078;SDS011;2054;47.858;11.156;2022-12-07T03:53:05;14.93;;;8.50;;
4078;SDS011;2054;47.858;11.156;2022-12-07T03:55:37;14.38;;;8.70;;
4078;SDS011;2054;47.858;11.156;2022-12-07T03:58:06;15.80;;;8.30;;
4078;SDS011;2054;47.858;11.156;2022-12-07T04:03:04;17.80;;;9.70;;
4078;SDS011;2054;47.858;11.156;2022-12-07T04:05:31;14.40;;;9.13;;
4078;SDS011;2054;47.858;11.156;2022-12-07T04:07:58;15.98;;;8.57;;
4078;SDS011;2054;47.858;11.156;2022-12-07T04:10:25;15.68;;;8.65;;
4078;SDS011;2054;47.858;11.156;2022-12-07T04:12:52;13.23;;;8.48;;
4078;SDS011;2054;47.858;11.156;2022-12-07T04:15:20;15.15;;;8.85;;
4078;SDS011;2054;47.858;11.156;2022-12-07T04:17:47;16.23;;;8.90;;
4078;SDS011;2054;47.858;11.156;2022-12-07T04:20:16;19.67;;;9.80;;
4078;SDS011;2054;47.858;11.156;2022-12-07T04:22:43;21.17;;;9.98;;
4078;SDS011;2054;47.858;11.156;2022-12-07T04:25:10;17.38;;;10.63;;
4078;SDS011;2054;47.858;11.156;2022-12-07T04:27:37;23.08;;;10.38;;
4078;SDS011;2054;47.858;11.156;2022-12-07T04:30:05;17.27;;;9.75;;
4078;SDS011;2054;47.858;11.156;2022-12-07T04:32:32;16.40;;;9.10;;
4078;SDS011;2054;47.858;11.156;2022-12-07T04:35:00;18.45;;;9.82;;
4078;SDS011;2054;47.858;11.156;2022-12-07T04:37:28;16.20;;;9.70;;
4078;SDS011;2054;47.858;11.156;2022-12-07T04:39:55;19.55;;;10.10;;
4078;SDS011;2054;47.858;11.156;2022-12-07T04:42:22;20.88;;;9.77;;
4078;SDS011;2054;47.858;11.156;2022-12-07T04:44:50;19.08;;;9.63;;
4078;SDS011;2054;47.858;11.156;2022-12-07T04:47:17;19.63;;;9.75;;
4078;SDS011;2054;47.858;11.156;2022-12-07T04:49:44;18.92;;;10.43;;
4078;SDS011;2054;47.858;11.156;2022-12-07T04:52:12;18.30;;;10.35;;
4078;SDS011;2054;47.858;11.156;2022-12-07T04:54:40;21.33;;;9.73;;
4078;SDS011;2054;47.858;11.156;2022-12-07T04:57:07;18.00;;;9.85;;
4078;SDS011;2054;47.858;11.156;2022-12-07T04:59:35;20.02;;;9.77;;
4078;SDS011;2054;47.858;11.156;2022-12-07T05:02:02;18.77;;;10.63;;
4078;SDS011;2054;47.858;11.156;2022-12-07T05:04:29;19.88;;;10.73;;
4078;SDS011;2054;47.858;11.156;2022-12-07T05:06:56;23.13;;;11.63;;
4078;SDS011;2054;47.858;11.156;2022-12-07T05:09:24;19.30;;;11.32;;
4078;SDS011;2054;47.858;11.156;2022-12-07T05:11:52;22.30;;;10.27;;
4078;SDS011;2054;47.858;11.156;2022-12-07T05:14:20;22.98;;;12.15;;
4078;SDS011;2054;47.858;11.156;2022-12-07T05:16:49;22.73;;;10.60;;
4078;SDS011;2054;47.858;11.156;2022-12-07T05:19:16;21.90;;;10.07;;
4078;SDS011;2054;47.858;11.156;2022-12-07T05:21:43;21.50;;;10.65;;
4078;SDS011;2054;47.858;11.156;2022-12-07T05:24:11;20.95;;;9.73;;
4078;SDS011;2054;47.858;11.156;2022-12-07T05:26:39;19.77;;;10.07;;
4078;SDS011;2054;47.858;11.156;2022-12-07T05:29:09;21.90;;;9.85;;
4078;SDS011;2054;47.858;11.156;2022-12-07T05:31:37;13.68;;;7.53;;
4078;SDS011;2054;47.858;11.156;2022-12-07T05:34:04;16.85;;;8.15;;
4078;SDS011;2054;47.858;11.156;2022-12-07T05:36:31;19.90;;;9.07;;
4078;SDS011;2054;47.858;11.156;2022-12-07T05:38:59;25.38;;;10.05;;
4078;SDS011;2054;47.858;11.156;2022-12-07T05:41:26;24.30;;;11.30;;
4078;SDS011;2054;47.858;11.156;2022-12-07T05:44:12;21.23;;;9.27;;
4078;SDS011;2054;47.858;11.156;2022-12-07T05:46:40;18.15;;;9.65;;
4078;SDS011;2054;47.858;11.156;2022-12-07T05:49:07;16.73;;;7.93;;
4078;SDS011;2054;47.858;11.156;2022-12-07T05:51:34;22.75;;;10.05;;
4078;SDS011;2054;47.858;11.156;2022-12-07T05:54:01;16.05;;;7.32;;
4078;SDS011;2054;47.858;11.156;2022-12-07T05:56:28;18.63;;;9.68;;
4078;SDS011;2054;47.858;11.156;2022-12-07T05:58:56;17.52;;;8.98;;
4078;SDS011;2054;47.858;11.156;2022-12-07T06:01:42;22.60;;;8.88;;
4078;SDS011;2054;47.858;11.156;2022-12-07T06:04:09;17.92;;;8.55;;
4078;SDS011;2054;47.858;11.156;2022-12-07T06:06:36;16.48;;;8.75;;
4078;SDS011;2054;47.858;11.156;2022-12-07T06:09:03;18.90;;;8.82;;
4078;SDS011;2054;47.858;11.156;2022-12-07T06:11:31;17.88;;;8.43;;
4078;SDS011;2054;47.858;11.156;2022-12-07T06:14:16;15.95;;;8.23;;
4078;SDS011;2054;47.858;11.156;2022-12-07T06:16:44;13.88;;;7.10;;
4078;SDS011;2054;47.858;11.156;2022-12-07T06:19:11;15.98;;;7.72;;
4078;SDS011;2054;47.858;11.156;2022-12-07T06:21:39;16.95;;;7.78;;
4078;SDS011;2054;47.858;11.156;2022-12-07T06:24:06;17.83;;;9.23;;
4078;SDS011;2054;47.858;11.156;2022-12-07T06:26:33;15.88;;;7.10;;
4078;SDS011;2054;47.858;11.156;2022-12-07T06:29:00;15.10;;;7.90;;
4078;SDS011;2054;47.858;11.156;2022-12-07T06:31:28;18.20;;;9.18;;
4078;SDS011;2054;47.858;11.156;2022-12-07T06:33:58;15.05;;;7.97;;
4078;SDS011;2054;47.858;11.156;2022-12-07T06:36:26;17.25;;;8.57;;
4078;SDS011;2054;47.858;11.156;2022-12-07T06:38:53;16.40;;;8.25;;
4078;SDS011;2054;47.858;11.156;2022-12-07T06:41:20;17.58;;;8.63;;
4078;SDS011;2054;47.858;11.156;2022-12-07T06:43:47;15.65;;;8.27;;
4078;SDS011;2054;47.858;11.156;2022-12-07T06:46:15;15.27;;;8.15;;
4078;SDS011;2054;47.858;11.156;2022-12-07T06:48:42;14.48;;;7.82;;
4078;SDS011;2054;47.858;11.156;2022-12-07T06:51:11;15.30;;;7.78;;
4078;SDS011;2054;47.858;11.156;2022-12-07T06:53:38;15.88;;;8.07;;
4078;SDS011;2054;47.858;11.156;2022-12-07T06:56:06;15.18;;;7.88;;
4078;SDS011;2054;47.858;11.156;2022-12-07T06:58:33;15.02;;;8.35;;
4078;SDS011;2054;47.858;11.156;2022-12-07T07:01:00;16.25;;;7.55;;
4078;SDS011;2054;47.858;11.156;2022-12-07T07:03:28;13.95;;;7.93;;
4078;SDS011;2054;47.858;11.156;2022-12-07T07:05:55;16.65;;;8.75;;
4078;SDS011;2054;47.858;11.156;2022-12-07T07:08:23;18.98;;;10.10;;
4078;SDS011;2054;47.858;11.156;2022-12-07T07:10:50;15.88;;;9.10;;
4078;SDS011;2054;47.858;11.156;2022-12-07T07:13:18;15.73;;;8.23;;
4078;SDS011;2054;47.858;11.156;2022-12-07T07:15:45;13.65;;;7.65;;
4078;SDS011;2054;47.858;11.156;2022-12-07T07:18:12;15.52;;;8.15;;
4078;SDS011;2054;47.858;11.156;2022-12-07T07:20:39;14.55;;;8.30;;
4078;SDS011;2054;47.858;11.156;2022-12-07T07:23:06;12.40;;;7.65;;
4078;SDS011;2054;47.858;11.156;2022-12-07T07:25:35;15.43;;;8.18;;
4078;SDS011;2054;47.858;11.156;2022-12-07T07:28:02;13.70;;;8.48;;
4078;SDS011;2054;47.858;11.156;2022-12-07T07:30:30;17.50;;;8.80;;
4078;SDS011;2054;47.858;11.156;2022-12-07T07:32:57;19.38;;;9.35;;
4078;SDS011;2054;47.858;11.156;2022-12-07T07:35:24;13.98;;;8.18;;
4078;SDS011;2054;47.858;11.156;2022-12-07T07:37:51;16.10;;;9.02;;
4078;SDS011;2054;47.858;11.156;2022-12-07T07:40:18;15.45;;;9.00;;
4078;SDS011;2054;47.858;11.156;2022-12-07T07:42:48;16.67;;;8.73;;
4078;SDS011;2054;47.858;11.156;2022-12-07T07:45:15;18.33;;;9.65;;
4078;SDS011;2054;47.858;11.156;2022-12-07T07:47:42;17.60;;;10.25;;
4078;SDS011;2054;47.858;11.156;2022-12-07T07:50:10;19.52;;;9.57;;
4078;SDS011;2054;47.858;11.156;2022-12-07T07:52:37;18.52;;;9.45;;
4078;SDS011;2054;47.858;11.156;2022-12-07T07:55:05;15.10;;;8.77;;
4078;SDS011;2054;47.858;11.156;2022-12-07T07:57:33;16.48;;;9.32;;
4078;SDS011;2054;47.858;11.156;2022-12-07T08:00:02;18.63;;;9.52;;
4078;SDS011;2054;47.858;11.156;2022-12-07T08:02:30;15.00;;;8.13;;
4078;SDS011;2054;47.858;11.156;2022-12-07T08:04:57;18.05;;;8.65;;
4078;SDS011;2054;47.858;11.156;2022-12-07T08:07:24;20.58;;;9.73;;
4078;SDS011;2054;47.858;11.156;2022-12-07T08:09:51;17.25;;;9.32;;
4078;SDS011;2054;47.858;11.156;2022-12-07T08:12:18;19.10;;;10.38;;
4078;SDS011;2054;47.858;11.156;2022-12-07T08:14:45;17.35;;;10.18;;
4078;SDS011;2054;47.858;11.156;2022-12-07T08:17:14;19.73;;;9.57;;
4078;SDS011;2054;47.858;11.156;2022-12-07T08:19:41;18.20;;;9.80;;
4078;SDS011;2054;47.858;11.156;2022-12-07T08:22:08;19.88;;;9.63;;
4078;SDS011;2054;47.858;11.156;2022-12-07T08:24:36;19.23;;;9.90;;
4078;SDS011;2054;47.858;11.156;2022-12-07T08:27:03;20.00;;;9.55;;
4078;SDS011;2054;47.858;11.156;2022-12-07T08:29:30;16.27;;;8.98;;
4078;SDS011;2054;47.858;11.156;2022-12-07T08:31:57;19.95;;;10.00;;
4078;SDS011;2054;47.858;11.156;2022-12-07T08:34:27;17.33;;;9.75;;
4078;SDS011;2054;47.858;11.156;2022-12-07T08:36:55;21.63;;;10.30;;
4078;SDS011;2054;47.858;11.156;2022-12-07T08:39:22;17.90;;;10.20;;
4078;SDS011;2054;47.858;11.156;2022-12-07T08:41:49;21.38;;;11.23;;
4078;SDS011;2054;47.858;11.156;2022-12-07T08:44:16;21.50;;;11.30;;
4078;SDS011;2054;47.858;11.156;2022-12-07T08:46:44;21.40;;;10.60;;
4078;SDS011;2054;47.858;11.156;2022-12-07T08:49:13;22.60;;;11.23;;
4078;SDS011;2054;47.858;11.156;2022-12-07T08:51:43;20.42;;;11.43;;
4078;SDS011;2054;47.858;11.156;2022-12-07T08:54:11;20.58;;;10.73;;
4078;SDS011;2054;47.858;11.156;2022-12-07T08:56:39;21.10;;;10.63;;
4078;SDS011;2054;47.858;11.156;2022-12-07T08:59:07;21.15;;;10.77;;
4078;SDS011;2054;47.858;11.156;2022-12-07T09:01:35;19.65;;;11.05;;
4078;SDS011;2054;47.858;11.156;2022-12-07T09:04:02;20.42;;;11.48;;
4078;SDS011;2054;47.858;11.156;2022-12-07T09:06:29;19.27;;;10.32;;
4078;SDS011;2054;47.858;11.156;2022-12-07T09:08:58;18.45;;;10.30;;
4078;SDS011;2054;47.858;11.156;2022-12-07T09:11:25;19.23;;;10.55;;
4078;SDS011;2054;47.858;11.156;2022-12-07T09:13:53;19.80;;;10.25;;
4078;SDS011;2054;47.858;11.156;2022-12-07T09:16:20;17.25;;;9.40;;
4078;SDS011;2054;47.858;11.156;2022-12-07T09:18:47;21.33;;;11.13;;
4078;SDS011;2054;47.858;11.156;2022-12-07T09:21:14;18.95;;;9.30;;
4078;SDS011;2054;47.858;11.156;2022-12-07T09:23:41;20.65;;;10.50;;
4078;SDS011;2054;47.858;11.156;2022-12-07T09:26:10;18.33;;;10.35;;
4078;SDS011;2054;47.858;11.156;2022-12-07T09:28:37;19.30;;;10.07;;
4078;SDS011;2054;47.858;11.156;2022-12-07T09:31:05;17.58;;;10.75;;
4078;SDS011;2054;47.858;11.156;2022-12-07T09:33:32;21.88;;;11.05;;
4078;SDS011;2054;47.858;11.156;2022-12-07T09:35:59;20.95;;;10.73;;
4078;SDS011;2054;47.858;11.156;2022-12-07T09:38:27;22.80;;;11.23;;
4078;SDS011;2054;47.858;11.156;2022-12-07T09:40:57;22.73;;;10.65;;
4078;SDS011;2054;47.858;11.156;2022-12-07T09:43:32;19.33;;;9.75;;
4078;SDS011;2054;47.858;11.156;2022-12-07T09:46:00;21.25;;;10.23;;
4078;SDS011;2054;47.858;11.156;2022-12-07T09:48:29;20.77;;;10.88;;
4078;SDS011;2054;47.858;11.156;2022-12-07T09:50:57;19.60;;;10.27;;
4078;SDS011;2054;47.858;11.156;2022-12-07T09:53:25;21.55;;;10.85;;
4078;SDS011;2054;47.858;11.156;2022-12-07T09:55:53;18.23;;;10.45;;
4078;SDS011;2054;47.858;11.156;2022-12-07T09:58:21;20.73;;;10.18;;
4078;SDS011;2054;47.858;11.156;2022-12-07T10:00:51;24.25;;;10.63;;
4078;SDS011;2054;47.858;11.156;2022-12-07T10:03:20;20.40;;;10.68;;
4078;SDS011;2054;47.858;11.156;2022-12-07T10:05:48;19.45;;;9.60;;
4078;SDS011;2054;47.858;11.156;2022-12-07T10:08:16;20.88;;;10.32;;
4078;SDS011;2054;47.858;11.156;2022-12-07T10:10:44;21.20;;;10.32;;
4078;SDS011;2054;47.858;11.156;2022-12-07T10:13:12;18.67;;;9.45;;
4078;SDS011;2054;47.858;11.156;2022-12-07T10:15:44;21.73;;;10.90;;
4078;SDS011;2054;47.858;11.156;2022-12-07T10:18:20;19.65;;;9.27;;
4078;SDS011;2054;47.858;11.156;2022-12-07T10:20:47;18.27;;;9.15;;
4078;SDS011;2054;47.858;11.156;2022-12-07T10:23:15;20.58;;;9.93;;
4078;SDS011;2054;47.858;11.156;2022-12-07T10:25:44;17.83;;;8.30;;
4078;SDS011;2054;47.858;11.156;2022-12-07T10:28:14;18.85;;;9.50;;
4078;SDS011;2054;47.858;11.156;2022-12-07T10:30:52;17.38;;;8.80;;
4078;SDS011;2054;47.858;11.156;2022-12-07T10:33:30;20.55;;;9.55;;
4078;SDS011;2054;47.858;11.156;2022-12-07T10:35:58;19.75;;;10.20;;
4078;SDS011;2054;47.858;11.156;2022-12-07T10:38:26;19.33;;;9.93;;
4078;SDS011;2054;47.858;11.156;2022-12-07T10:41:03;17.90;;;9.40;;
4078;SDS011;2054;47.858;11.156;2022-12-07T10:43:31;17.33;;;8.02;;
4078;SDS011;2054;47.858;11.156;2022-12-07T10:46:17;20.42;;;10.10;;
4078;SDS011;2054;47.858;11.156;2022-12-07T10:48:52;21.45;;;9.57;;
4078;SDS011;2054;47.858;11.156;2022-12-07T10:51:22;20.10;;;9.35;;
4078;SDS011;2054;47.858;11.156;2022-12-07T10:53:54;18.92;;;9.43;;
4078;SDS011;2054;47.858;11.156;2022-12-07T10:59:23;20.40;;;9.82;;
4078;SDS011;2054;47.858;11.156;2022-12-07T11:01:52;17.70;;;8.73;;
4078;SDS011;2054;47.858;11.156;2022-12-07T11:04:27;18.67;;;9.35;;
4078;SDS011;2054;47.858;11.156;2022-12-07T11:06:58;20.67;;;9.75;;
4078;SDS011;2054;47.858;11.156;2022-12-07T11:09:32;15.82;;;8.85;;
4078;SDS011;2054;47.858;11.156;2022-12-07T11:12:04;21.23;;;10.05;;
4078;SDS011;2054;47.858;11.156;2022-12-07T11:14:35;19.55;;;9.32;;
4078;SDS011;2054;47.858;11.156;2022-12-07T11:17:04;19.80;;;9.35;;
4078;SDS011;2054;47.858;11.156;2022-12-07T11:19:42;17.65;;;9.35;;
4078;SDS011;2054;47.858;11.156;2022-12-07T11:22:16;21.38;;;10.38;;
4078;SDS011;2054;47.858;11.156;2022-12-07T11:24:47;15.20;;;8.98;;
4078;SDS011;2054;47.858;11.156;2022-12-07T11:27:20;17.48;;;9.43;;
4078;SDS011;2054;47.858;11.156;2022-12-07T11:29:53;16.65;;;8.93;;
4078;SDS011;2054;47.858;11.156;2022-12-07T11:32:27;18.13;;;8.82;;
4078;SDS011;2054;47.858;11.156;2022-12-07T11:35:04;19.10;;;9.05;;
4078;SDS011;2054;47.858;11.156;2022-12-07T11:37:33;17.45;;;8.73;;
4078;SDS011;2054;47.858;11.156;2022-12-07T11:40:01;16.17;;;8.00;;
4078;SDS011;2054;47.858;11.156;2022-12-07T11:42:30;16.40;;;9.40;;
4078;SDS011;2054;47.858;11.156;2022-12-07T11:44:59;16.90;;;9.30;;
4078;SDS011;2054;47.858;11.156;2022-12-07T11:47:30;18.88;;;9.20;;
4078;SDS011;2054;47.858;11.156;2022-12-07T11:50:05;18.65;;;9.23;;
4078;SDS011;2054;47.858;11.156;2022-12-07T11:52:40;17.63;;;8.98;;
4078;SDS011;2054;47.858;11.156;2022-12-07T11:55:14;14.68;;;8.13;;
4078;SDS011;2054;47.858;11.156;2022-12-07T11:57:44;19.08;;;8.90;;
4078;SDS011;2054;47.858;11.156;2022-12-07T12:00:14;20.20;;;9.95;;
4078;SDS011;2054;47.858;11.156;2022-12-07T12:02:43;15.82;;;8.82;;
4078;SDS011;2054;47.858;11.156;2022-12-07T12:05:17;16.45;;;8.55;;
4078;SDS011;2054;47.858;11.156;2022-12-07T12:07:46;17.40;;;8.60;;
4078;SDS011;2054;47.858;11.156;2022-12-07T12:10:16;14.32;;;8.00;;
4078;SDS011;2054;47.858;11.156;2022-12-07T12:12:48;17.60;;;9.27;;
4078;SDS011;2054;47.858;11.156;2022-12-07T12:15:24;12.10;;;7.45;;
4078;SDS011;2054;47.858;11.156;2022-12-07T12:17:57;15.85;;;8.50;;
4078;SDS011;2054;47.858;11.156;2022-12-07T12:20:29;17.33;;;8.93;;
4078;SDS011;2054;47.858;11.156;2022-12-07T12:22:58;17.00;;;8.55;;
4078;SDS011;2054;47.858;11.156;2022-12-07T12:25:27;15.38;;;8.27;;
4078;SDS011;2054;47.858;11.156;2022-12-07T12:27:56;14.82;;;8.05;;
4078;SDS011;2054;47.858;11.156;2022-12-07T12:30:25;15.20;;;8.15;;
4078;SDS011;2054;47.858;11.156;2022-12-07T12:33:01;15.90;;;8.48;;
4078;SDS011;2054;47.858;11.156;2022-12-07T12:35:31;18.73;;;9.52;;
4078;SDS011;2054;47.858;11.156;2022-12-07T12:40:45;15.95;;;8.95;;
4078;SDS011;2054;47.858;11.156;2022-12-07T12:48:40;15.20;;;8.25;;
4078;SDS011;2054;47.858;11.156;2022-12-07T12:53:55;13.98;;;7.32;;
4078;SDS011;2054;47.858;11.156;2022-12-07T12:56:34;12.90;;;7.45;;
4078;SDS011;2054;47.858;11.156;2022-12-07T13:01:48;15.98;;;8.38;;
4078;SDS011;2054;47.858;11.156;2022-12-07T13:04:31;13.10;;;7.60;;
4078;SDS011;2054;47.858;11.156;2022-12-07T13:07:01;13.05;;;8.00;;
4078;SDS011;2054;47.858;11.156;2022-12-07T13:09:30;13.23;;;7.55;;
4078;SDS011;2054;47.858;11.156;2022-12-07T13:12:00;13.82;;;7.60;;
4078;SDS011;2054;47.858;11.156;2022-12-07T13:20:39;14.75;;;8.23;;
4078;SDS011;2054;47.858;11.156;2022-12-07T13:23:01;14.60;;;7.32;;
4078;SDS011;2054;47.858;11.156;2022-12-07T13:25:35;14.32;;;7.35;;
4078;SDS011;2054;47.858;11.156;2022-12-07T13:28:07;15.48;;;8.18;;
4078;SDS011;2054;47.858;11.156;2022-12-07T13:30:40;11.80;;;7.03;;
4078;SDS011;2054;47.858;11.156;2022-12-07T13:33:10;14.73;;;8.00;;
4078;SDS011;2054;47.858;11.156;2022-12-07T13:35:37;18.08;;;9.05;;
4078;SDS011;2054;47.858;11.156;2022-12-07T13:38:05;14.10;;;7.90;;
4078;SDS011;2054;47.858;11.156;2022-12-07T13:40:32;14.75;;;8.43;;
4078;SDS011;2054;47.858;11.156;2022-12-07T13:43:02;15.52;;;8.27;;
4078;SDS011;2054;47.858;11.156;2022-12-07T13:45:30;14.98;;;8.35;;
4078;SDS011;2054;47.858;11.156;2022-12-07T13:48:19;16.00;;;8.30;;
4078;SDS011;2054;47.858;11.156;2022-12-07T13:50:52;14.30;;;7.22;;
4078;SDS011;2054;47.858;11.156;2022-12-07T13:53:19;12.30;;;7.43;;
4078;SDS011;2054;47.858;11.156;2022-12-07T13:55:47;13.57;;;7.00;;
4078;SDS011;2054;47.858;11.156;2022-12-07T13:58:16;12.85;;;7.40;;
4078;SDS011;2054;47.858;11.156;2022-12-07T14:00:43;12.88;;;6.80;;
4078;SDS011;2054;47.858;11.156;2022-12-07T14:03:23;11.02;;;6.63;;
4078;SDS011;2054;47.858;11.156;2022-12-07T14:06:02;13.35;;;7.13;;
4078;SDS011;2054;47.858;11.156;2022-12-07T14:08:30;14.02;;;8.05;;
4078;SDS011;2054;47.858;11.156;2022-12-07T14:10:57;13.68;;;7.38;;
4078;SDS011;2054;47.858;11.156;2022-12-07T14:13:28;13.57;;;7.28;;
4078;SDS011;2054;47.858;11.156;2022-12-07T14:15:56;11.50;;;6.72;;
4078;SDS011;2054;47.858;11.156;2022-12-07T14:18:26;10.63;;;6.22;;
4078;SDS011;2054;47.858;11.156;2022-12-07T14:21:02;12.88;;;7.30;;
4078;SDS011;2054;47.858;11.156;2022-12-07T14:23:29;11.52;;;6.30;;
4078;SDS011;2054;47.858;11.156;2022-12-07T14:26:04;10.73;;;6.50;;
4078;SDS011;2054;47.858;11.156;2022-12-07T14:28:34;12.23;;;6.80;;
4078;SDS011;2054;47.858;11.156;2022-12-07T14:31:02;13.43;;;7.28;;
4078;SDS011;2054;47.858;11.156;2022-12-07T14:33:29;13.23;;;6.78;;
4078;SDS011;2054;47.858;11.156;2022-12-07T14:35:56;12.65;;;7.10;;
4078;SDS011;2054;47.858;11.156;2022-12-07T14:38:24;12.35;;;7.30;;
4078;SDS011;2054;47.858;11.156;2022-12-07T14:40:51;11.65;;;6.68;;
4078;SDS011;2054;47.858;11.156;2022-12-07T14:43:19;11.48;;;6.40;;
4078;SDS011;2054;47.858;11.156;2022-12-07T14:45:48;13.10;;;7.35;;
4078;SDS011;2054;47.858;11.156;2022-12-07T14:48:15;12.50;;;6.85;;
4078;SDS011;2054;47.858;11.156;2022-12-07T14:50:43;14.40;;;7.60;;
4078;SDS011;2054;47.858;11.156;2022-12-07T14:53:13;13.40;;;8.30;;
4078;SDS011;2054;47.858;11.156;2022-12-07T14:55:40;14.63;;;7.70;;
4078;SDS011;2054;47.858;11.156;2022-12-07T14:58:09;17.65;;;8.23;;
4078;SDS011;2054;47.858;11.156;2022-12-07T15:00:38;15.30;;;8.20;;
4078;SDS011;2054;47.858;11.156;2022-12-07T15:03:07;13.98;;;8.20;;
4078;SDS011;2054;47.858;11.156;2022-12-07T15:05:34;16.55;;;8.13;;
4078;SDS011;2054;47.858;11.156;2022-12-07T15:08:02;12.52;;;7.05;;
4078;SDS011;2054;47.858;11.156;2022-12-07T15:10:30;14.55;;;7.90;;
4078;SDS011;2054;47.858;11.156;2022-12-07T15:12:58;15.68;;;8.60;;
4078;SDS011;2054;47.858;11.156;2022-12-07T15:15:46;14.00;;;7.32;;
4078;SDS011;2054;47.858;11.156;2022-12-07T15:18:15;13.93;;;7.68;;
4078;SDS011;2054;47.858;11.156;2022-12-07T15:20:42;14.90;;;7.70;;
4078;SDS011;2054;47.858;11.156;2022-12-07T15:23:09;15.88;;;8.20;;
4078;SDS011;2054;47.858;11.156;2022-12-07T15:25:36;14.07;;;8.18;;
4078;SDS011;2054;47.858;11.156;2022-12-07T15:28:04;14.77;;;7.60;;
4078;SDS011;2054;47.858;11.156;2022-12-07T15:30:31;20.42;;;8.07;;
4078;SDS011;2054;47.858;11.156;2022-12-07T15:32:58;15.93;;;8.48;;
4078;SDS011;2054;47.858;11.156;2022-12-07T15:35:27;20.73;;;9.85;;
4078;SDS011;2054;47.858;11.156;2022-12-07T15:37:54;16.77;;;9.38;;
4078;SDS011;2054;47.858;11.156;2022-12-07T15:40:21;18.58;;;9.48;;
4078;SDS011;2054;47.858;11.156;2022-12-07T15:42:48;18.40;;;9.38;;
4078;SDS011;2054;47.858;11.156;2022-12-07T15:45:15;21.15;;;10.68;;
4078;SDS011;2054;47.858;11.156;2022-12-07T15:47:42;19.45;;;9.75;;
4078;SDS011;2054;47.858;11.156;2022-12-07T15:50:11;17.45;;;8.73;;
4078;SDS011;2054;47.858;11.156;2022-12-07T15:52:40;18.75;;;9.20;;
4078;SDS011;2054;47.858;11.156;2022-12-07T15:55:07;23.27;;;10.70;;
4078;SDS011;2054;47.858;11.156;2022-12-07T15:57:36;19.83;;;9.50;;
4078;SDS011;2054;47.858;11.156;2022-12-07T16:00:04;17.52;;;9.75;;
4078;SDS011;2054;47.858;11.156;2022-12-07T16:02:32;25.88;;;11.90;;
4078;SDS011;2054;47.858;11.156;2022-12-07T16:04:59;23.15;;;11.80;;
4078;SDS011;2054;47.858;11.156;2022-12-07T16:07:26;26.40;;;13.57;;
4078;SDS011;2054;47.858;11.156;2022-12-07T16:09:55;24.83;;;13.23;;
4078;SDS011;2054;47.858;11.156;2022-12-07T16:12:22;15.77;;;8.98;;
4078;SDS011;2054;47.858;11.156;2022-12-07T16:14:50;16.95;;;8.73;;
4078;SDS011;2054;47.858;11.156;2022-12-07T16:17:17;17.75;;;8.25;;
4078;SDS011;2054;47.858;11.156;2022-12-07T16:19:44;12.75;;;7.95;;
4078;SDS011;2054;47.858;11.156;2022-12-07T16:22:12;17.60;;;8.38;;
4078;SDS011;2054;47.858;11.156;2022-12-07T16:24:39;13.25;;;7.80;;
4078;SDS011;2054;47.858;11.156;2022-12-07T16:27:07;11.68;;;6.63;;
4078;SDS011;2054;47.858;11.156;2022-12-07T16:29:35;13.02;;;6.55;;
4078;SDS011;2054;47.858;11.156;2022-12-07T16:32:02;15.35;;;6.97;;
4078;SDS011;2054;47.858;11.156;2022-12-07T16:34:29;16.27;;;8.38;;
4078;SDS011;2054;47.858;11.156;2022-12-07T16:36:56;15.55;;;7.80;;
4078;SDS011;2054;47.858;11.156;2022-12-07T16:39:23;12.65;;;7.05;;
4078;SDS011;2054;47.858;11.156;2022-12-07T16:41:51;13.30;;;7.07;;
4078;SDS011;2054;47.858;11.156;2022-12-07T16:44:20;13.30;;;7.10;;
4078;SDS011;2054;47.858;11.156;2022-12-07T16:46:47;15.48;;;7.60;;
4078;SDS011;2054;47.858;11.156;2022-12-07T16:49:16;13.98;;;6.85;;
4078;SDS011;2054;47.858;11.156;2022-12-07T16:51:44;14.50;;;7.68;;
4078;SDS011;2054;47.858;11.156;2022-12-07T16:54:12;12.30;;;6.68;;
4078;SDS011;2054;47.858;11.156;2022-12-07T16:56:39;12.57;;;6.78;;
4078;SDS011;2054;47.858;11.156;2022-12-07T16:59:06;12.30;;;6.80;;
4078;SDS011;2054;47.858;11.156;2022-12-07T17:01:35;12.50;;;7.07;;
4078;SDS011;2054;47.858;11.156;2022-12-07T17:04:02;13.68;;;7.63;;
4078;SDS011;2054;47.858;11.156;2022-12-07T17:06:30;14.30;;;7.40;;
4078;SDS011;2054;47.858;11.156;2022-12-07T17:08:57;11.13;;;6.80;;
4078;SDS011;2054;47.858;11.156;2022-12-07T17:11:25;13.05;;;7.60;;
4078;SDS011;2054;47.858;11.156;2022-12-07T17:13:53;16.30;;;8.02;;
4078;SDS011;2054;47.858;11.156;2022-12-07T17:16:39;16.92;;;7.82;;
4078;SDS011;2054;47.858;11.156;2022-12-07T17:19:07;19.70;;;8.80;;
4078;SDS011;2054;47.858;11.156;2022-12-07T17:21:35;15.98;;;8.40;;
4078;SDS011;2054;47.858;11.156;2022-12-07T17:24:03;17.75;;;8.45;;
4078;SDS011;2054;47.858;11.156;2022-12-07T17:26:30;17.33;;;8.82;;
4078;SDS011;2054;47.858;11.156;2022-12-07T17:28:58;16.50;;;8.18;;
4078;SDS011;2054;47.858;11.156;2022-12-07T17:31:26;13.63;;;7.15;;
4078;SDS011;2054;47.858;11.156;2022-12-07T17:33:54;13.25;;;7.13;;
4078;SDS011;2054;47.858;11.156;2022-12-07T17:36:22;14.63;;;8.18;;
4078;SDS011;2054;47.858;11.156;2022-12-07T17:38:50;15.63;;;8.45;;
4078;SDS011;2054;47.858;11.156;2022-12-07T17:41:18;19.55;;;8.27;;
4078;SDS011;2054;47.858;11.156;2022-12-07T17:44:00;14.82;;;8.10;;
4078;SDS011;2054;47.858;11.156;2022-12-07T17:46:27;14.65;;;7.88;;
4078;SDS011;2054;47.858;11.156;2022-12-07T17:49:00;14.18;;;7.30;;
4078;SDS011;2054;47.858;11.156;2022-12-07T17:51:29;12.25;;;7.20;;
4078;SDS011;2054;47.858;11.156;2022-12-07T17:54:22;17.27;;;8.00;;
4078;SDS011;2054;47.858;11.156;2022-12-07T17:56:49;19.02;;;9.70;;
4078;SDS011;2054;47.858;11.156;2022-12-07T17:59:17;16.20;;;9.30;;
4078;SDS011;2054;47.858;11.156;2022-12-07T18:01:44;19.83;;;8.95;;
4078;SDS011;2054;47.858;11.156;2022-12-07T18:04:12;16.45;;;8.68;;
4078;SDS011;2054;47.858;11.156;2022-12-07T18:06:40;12.07;;;7.10;;
4078;SDS011;2054;47.858;11.156;2022-12-07T18:09:07;13.88;;;7.00;;
4078;SDS011;2054;47.858;11.156;2022-12-07T18:11:35;12.38;;;6.93;;
4078;SDS011;2054;47.858;11.156;2022-12-07T18:14:02;12.93;;;7.10;;
4078;SDS011;2054;47.858;11.156;2022-12-07T18:16:30;12.88;;;7.45;;
4078;SDS011;2054;47.858;11.156;2022-12-07T18:18:58;12.38;;;7.40;;
4078;SDS011;2054;47.858;11.156;2022-12-07T18:21:28;14.13;;;7.72;;
4078;SDS011;2054;47.858;11.156;2022-12-07T18:23:56;10.35;;;5.78;;
4078;SDS011;2054;47.858;11.156;2022-12-07T18:26:25;13.93;;;7.30;;
4078;SDS011;2054;47.858;11.156;2022-12-07T18:28:52;15.43;;;7.45;;
4078;SDS011;2054;47.858;11.156;2022-12-07T18:31:20;17.65;;;9.02;;
4078;SDS011;2054;47.858;11.156;2022-12-07T18:33:47;18.98;;;8.38;;
4078;SDS011;2054;47.858;11.156;2022-12-07T18:36:15;18.60;;;9.65;;
4078;SDS011;2054;47.858;11.156;2022-12-07T18:38:43;18.75;;;9.02;;
4078;SDS011;2054;47.858;11.156;2022-12-07T18:41:12;16.90;;;8.60;;
4078;SDS011;2054;47.858;11.156;2022-12-07T18:43:40;14.27;;;7.85;;
4078;SDS011;2054;47.858;11.156;2022-12-07T18:46:08;15.90;;;7.85;;
4078;SDS011;2054;47.858;11.156;2022-12-07T18:48:36;15.88;;;7.82;;
4078;SDS011;2054;47.858;11.156;2022-12-07T18:51:04;15.05;;;8.13;;
4078;SDS011;2054;47.858;11.156;2022-12-07T18:53:32;11.88;;;7.38;;
4078;SDS011;2054;47.858;11.156;2022-12-07T18:56:01;13.18;;;7.45;;
4078;SDS011;2054;47.858;11.156;2022-12-07T18:58:29;12.18;;;7.32;;
4078;SDS011;2054;47.858;11.156;2022-12-07T19:00:56;14.70;;;7.25;;
4078;SDS011;2054;47.858;11.156;2022-12-07T19:03:24;14.05;;;7.10;;
4078;SDS011;2054;47.858;11.156;2022-12-07T19:05:51;13.25;;;6.90;;